sensor_id;sensor_type;location;lat;lon;timestamp;P1;durP1;ratioP1;P2;durP2;ratioP2
54853;SDS011;40747;49.480;8.658;2022-12-18T00:02:02;22.92;;;11.05;;
54853;SDS011;40747;49.480;8.658;2022-12-18T00:04:28;20.73;;;11.82;;
54853;SDS011;40747;49.480;8.658;2022-12-18T00:06:53;13.57;;;10.30;;
54853;SDS011;40747;49.480;8.658;2022-12-18T00:09:19;31.13;;;12.98;;
54853;SDS011;40747;49.480;8.658;2022-12-18T00:11:44;39.55;;;16.75;;
54853;SDS011;40747;49.480;8.658;2022-12-18T00:14:11;19.35;;;11.25;;
54853;SDS011;40747;49.480;8.658;2022-12-18T00:16:37;12.55;;;8.18;;
54853;SDS011;40747;49.480;8.658;2022-12-18T00:19:03;40.33;;;13.90;;
54853;SDS011;40747;49.480;8.658;2022-12-18T00:21:30;12.02;;;7.38;;
54853;SDS011;40747;49.480;8.658;2022-12-18T00:23:57;12.50;;;9.65;;
54853;SDS011;40747;49.480;8.658;2022-12-18T00:26:30;7.60;;;7.03;;
54853;SDS011;40747;49.480;8.658;2022-12-18T00:29:00;12.48;;;7.63;;
54853;SDS011;40747;49.480;8.658;2022-12-18T00:31:28;19.30;;;9.75;;
54853;SDS011;40747;49.480;8.658;2022-12-18T00:33:54;32.00;;;7.90;;
54853;SDS011;40747;49.480;8.658;2022-12-18T00:36:24;27.80;;;15.95;;
54853;SDS011;40747;49.480;8.658;2022-12-18T00:38:51;36.33;;;14.07;;
54853;SDS011;40747;49.480;8.658;2022-12-18T00:41:18;20.30;;;10.88;;
54853;SDS011;40747;49.480;8.658;2022-12-18T00:44:03;3.90;;;3.65;;
54853;SDS011;40747;49.480;8.658;2022-12-18T00:46:29;6.63;;;6.00;;
54853;SDS011;40747;49.480;8.658;2022-12-18T00:48:54;23.27;;;15.77;;
54853;SDS011;40747;49.480;8.658;2022-12-18T00:51:19;11.68;;;9.32;;
54853;SDS011;40747;49.480;8.658;2022-12-18T00:53:45;15.00;;;10.48;;
54853;SDS011;40747;49.480;8.658;2022-12-18T00:56:10;16.67;;;10.20;;
54853;SDS011;40747;49.480;8.658;2022-12-18T00:58:35;6.85;;;6.25;;
54853;SDS011;40747;49.480;8.658;2022-12-18T01:01:00;8.70;;;5.35;;
54853;SDS011;40747;49.480;8.658;2022-12-18T01:03:26;19.80;;;12.80;;
54853;SDS011;40747;49.480;8.658;2022-12-18T01:05:51;25.73;;;14.23;;
54853;SDS011;40747;49.480;8.658;2022-12-18T01:08:16;12.25;;;7.28;;
54853;SDS011;40747;49.480;8.658;2022-12-18T01:10:41;2.55;;;2.45;;
54853;SDS011;40747;49.480;8.658;2022-12-18T01:13:07;12.55;;;9.43;;
54853;SDS011;40747;49.480;8.658;2022-12-18T01:15:32;7.40;;;6.60;;
54853;SDS011;40747;49.480;8.658;2022-12-18T01:17:57;14.60;;;8.15;;
54853;SDS011;40747;49.480;8.658;2022-12-18T01:20:23;15.48;;;10.02;;
54853;SDS011;40747;49.480;8.658;2022-12-18T01:22:48;11.85;;;8.05;;
54853;SDS011;40747;49.480;8.658;2022-12-18T01:25:13;26.05;;;13.77;;
54853;SDS011;40747;49.480;8.658;2022-12-18T01:27:38;11.65;;;5.75;;
54853;SDS011;40747;49.480;8.658;2022-12-18T01:30:04;7.78;;;6.05;;
54853;SDS011;40747;49.480;8.658;2022-12-18T01:32:30;27.85;;;10.57;;
54853;SDS011;40747;49.480;8.658;2022-12-18T01:34:56;3.83;;;3.53;;
54853;SDS011;40747;49.480;8.658;2022-12-18T01:37:22;18.60;;;4.15;;
54853;SDS011;40747;49.480;8.658;2022-12-18T01:39:47;3.85;;;3.63;;
54853;SDS011;40747;49.480;8.658;2022-12-18T01:42:14;8.32;;;4.30;;
54853;SDS011;40747;49.480;8.658;2022-12-18T01:52:40;15.75;;;8.27;;
54853;SDS011;40747;49.480;8.658;2022-12-18T01:55:08;9.82;;;6.38;;
54853;SDS011;40747;49.480;8.658;2022-12-18T01:57:35;39.58;;;16.85;;
54853;SDS011;40747;49.480;8.658;2022-12-18T02:00:03;14.02;;;8.43;;
54853;SDS011;40747;49.480;8.658;2022-12-18T02:02:31;20.77;;;13.18;;
54853;SDS011;40747;49.480;8.658;2022-12-18T02:04:57;20.50;;;8.40;;
54853;SDS011;40747;49.480;8.658;2022-12-18T02:07:37;21.40;;;11.82;;
54853;SDS011;40747;49.480;8.658;2022-12-18T02:10:27;30.05;;;12.38;;
54853;SDS011;40747;49.480;8.658;2022-12-18T02:13:13;23.77;;;12.05;;
54853;SDS011;40747;49.480;8.658;2022-12-18T02:18:33;24.63;;;8.88;;
54853;SDS011;40747;49.480;8.658;2022-12-18T02:21:20;22.30;;;9.77;;
54853;SDS011;40747;49.480;8.658;2022-12-18T02:24:06;26.13;;;9.50;;
54853;SDS011;40747;49.480;8.658;2022-12-18T02:26:45;18.88;;;10.75;;
54853;SDS011;40747;49.480;8.658;2022-12-18T02:29:16;27.95;;;14.00;;
54853;SDS011;40747;49.480;8.658;2022-12-18T02:31:47;19.23;;;7.97;;
54853;SDS011;40747;49.480;8.658;2022-12-18T02:34:17;15.52;;;8.23;;
54853;SDS011;40747;49.480;8.658;2022-12-18T02:36:44;16.73;;;11.52;;
54853;SDS011;40747;49.480;8.658;2022-12-18T02:39:12;21.67;;;11.88;;
54853;SDS011;40747;49.480;8.658;2022-12-18T02:41:39;9.32;;;8.43;;
54853;SDS011;40747;49.480;8.658;2022-12-18T02:44:09;14.13;;;9.73;;
54853;SDS011;40747;49.480;8.658;2022-12-18T02:46:37;16.40;;;9.38;;
54853;SDS011;40747;49.480;8.658;2022-12-18T02:54:55;7.57;;;6.78;;
54853;SDS011;40747;49.480;8.658;2022-12-18T03:00:21;12.07;;;6.97;;
54853;SDS011;40747;49.480;8.658;2022-12-18T03:02:52;11.55;;;7.45;;
54853;SDS011;40747;49.480;8.658;2022-12-18T03:05:22;13.93;;;7.78;;
54853;SDS011;40747;49.480;8.658;2022-12-18T03:08:00;6.28;;;4.10;;
54853;SDS011;40747;49.480;8.658;2022-12-18T03:10:32;26.40;;;9.98;;
54853;SDS011;40747;49.480;8.658;2022-12-18T03:13:04;10.00;;;6.35;;
54853;SDS011;40747;49.480;8.658;2022-12-18T03:15:34;20.73;;;7.20;;
54853;SDS011;40747;49.480;8.658;2022-12-18T03:20:35;8.38;;;4.72;;
54853;SDS011;40747;49.480;8.658;2022-12-18T03:23:09;18.95;;;10.82;;
54853;SDS011;40747;49.480;8.658;2022-12-18T03:25:41;21.25;;;10.02;;
54853;SDS011;40747;49.480;8.658;2022-12-18T03:28:10;24.10;;;10.77;;
54853;SDS011;40747;49.480;8.658;2022-12-18T03:30:40;8.48;;;6.93;;
54853;SDS011;40747;49.480;8.658;2022-12-18T03:33:09;29.55;;;13.77;;
54853;SDS011;40747;49.480;8.658;2022-12-18T03:35:40;39.33;;;15.02;;
54853;SDS011;40747;49.480;8.658;2022-12-18T03:38:08;48.28;;;17.83;;
54853;SDS011;40747;49.480;8.658;2022-12-18T03:40:44;15.13;;;10.15;;
54853;SDS011;40747;49.480;8.658;2022-12-18T03:43:16;8.38;;;7.55;;
54853;SDS011;40747;49.480;8.658;2022-12-18T03:45:51;9.55;;;6.40;;
54853;SDS011;40747;49.480;8.658;2022-12-18T03:48:28;7.80;;;4.55;;
54853;SDS011;40747;49.480;8.658;2022-12-18T03:51:11;16.55;;;9.40;;
54853;SDS011;40747;49.480;8.658;2022-12-18T03:53:47;11.07;;;9.30;;
54853;SDS011;40747;49.480;8.658;2022-12-18T03:56:19;12.43;;;7.93;;
54853;SDS011;40747;49.480;8.658;2022-12-18T03:58:48;35.92;;;15.30;;
54853;SDS011;40747;49.480;8.658;2022-12-18T04:01:16;6.65;;;5.80;;
54853;SDS011;40747;49.480;8.658;2022-12-18T04:03:44;13.63;;;7.35;;
54853;SDS011;40747;49.480;8.658;2022-12-18T04:06:14;20.58;;;11.98;;
54853;SDS011;40747;49.480;8.658;2022-12-18T04:08:41;9.10;;;6.72;;
54853;SDS011;40747;49.480;8.658;2022-12-18T04:11:07;20.90;;;10.38;;
54853;SDS011;40747;49.480;8.658;2022-12-18T04:13:35;6.55;;;4.45;;
54853;SDS011;40747;49.480;8.658;2022-12-18T04:16:01;9.60;;;7.07;;
54853;SDS011;40747;49.480;8.658;2022-12-18T04:18:27;31.58;;;11.95;;
54853;SDS011;40747;49.480;8.658;2022-12-18T04:20:52;13.38;;;5.00;;
54853;SDS011;40747;49.480;8.658;2022-12-18T04:23:17;7.18;;;5.10;;
54853;SDS011;40747;49.480;8.658;2022-12-18T04:25:43;7.72;;;6.63;;
54853;SDS011;40747;49.480;8.658;2022-12-18T04:28:08;4.13;;;3.80;;
54853;SDS011;40747;49.480;8.658;2022-12-18T04:30:33;16.40;;;10.38;;
54853;SDS011;40747;49.480;8.658;2022-12-18T04:32:59;6.93;;;6.25;;
54853;SDS011;40747;49.480;8.658;2022-12-18T04:35:24;11.88;;;8.40;;
54853;SDS011;40747;49.480;8.658;2022-12-18T04:37:50;6.00;;;4.75;;
54853;SDS011;40747;49.480;8.658;2022-12-18T04:40:15;10.52;;;6.45;;
54853;SDS011;40747;49.480;8.658;2022-12-18T04:42:40;39.90;;;16.55;;
54853;SDS011;40747;49.480;8.658;2022-12-18T04:45:06;3.70;;;2.72;;
54853;SDS011;40747;49.480;8.658;2022-12-18T04:47:32;25.92;;;8.48;;
54853;SDS011;40747;49.480;8.658;2022-12-18T04:49:57;13.90;;;8.60;;
54853;SDS011;40747;49.480;8.658;2022-12-18T04:52:22;14.00;;;6.40;;
54853;SDS011;40747;49.480;8.658;2022-12-18T04:54:48;10.68;;;7.50;;
54853;SDS011;40747;49.480;8.658;2022-12-18T04:57:13;4.80;;;4.20;;
54853;SDS011;40747;49.480;8.658;2022-12-18T04:59:38;10.55;;;6.18;;
54853;SDS011;40747;49.480;8.658;2022-12-18T05:02:03;9.30;;;6.10;;
54853;SDS011;40747;49.480;8.658;2022-12-18T05:04:29;25.73;;;11.90;;
54853;SDS011;40747;49.480;8.658;2022-12-18T05:06:54;34.70;;;14.32;;
54853;SDS011;40747;49.480;8.658;2022-12-18T05:09:19;12.02;;;6.97;;
54853;SDS011;40747;49.480;8.658;2022-12-18T05:11:45;24.67;;;11.77;;
54853;SDS011;40747;49.480;8.658;2022-12-18T05:14:11;5.03;;;3.92;;
54853;SDS011;40747;49.480;8.658;2022-12-18T05:16:36;10.13;;;7.22;;
54853;SDS011;40747;49.480;8.658;2022-12-18T05:19:02;13.60;;;8.95;;
54853;SDS011;40747;49.480;8.658;2022-12-18T05:21:27;6.00;;;3.97;;
54853;SDS011;40747;49.480;8.658;2022-12-18T05:23:52;21.73;;;12.55;;
54853;SDS011;40747;49.480;8.658;2022-12-18T05:26:17;3.00;;;2.80;;
54853;SDS011;40747;49.480;8.658;2022-12-18T05:28:43;5.47;;;4.05;;
54853;SDS011;40747;49.480;8.658;2022-12-18T05:31:09;7.63;;;5.90;;
54853;SDS011;40747;49.480;8.658;2022-12-18T05:33:34;11.10;;;8.13;;
54853;SDS011;40747;49.480;8.658;2022-12-18T05:36:06;11.77;;;7.43;;
54853;SDS011;40747;49.480;8.658;2022-12-18T05:38:34;3.20;;;2.97;;
54853;SDS011;40747;49.480;8.658;2022-12-18T05:41:01;16.10;;;8.68;;
54853;SDS011;40747;49.480;8.658;2022-12-18T05:43:27;1.27;;;1.15;;
54853;SDS011;40747;49.480;8.658;2022-12-18T05:45:53;12.18;;;5.43;;
54853;SDS011;40747;49.480;8.658;2022-12-18T05:48:20;17.85;;;9.50;;
54853;SDS011;40747;49.480;8.658;2022-12-18T05:50:46;4.57;;;3.17;;
54853;SDS011;40747;49.480;8.658;2022-12-18T05:53:14;9.88;;;5.72;;
54853;SDS011;40747;49.480;8.658;2022-12-18T05:55:41;7.90;;;5.00;;
54853;SDS011;40747;49.480;8.658;2022-12-18T05:58:08;10.57;;;8.13;;
54853;SDS011;40747;49.480;8.658;2022-12-18T06:00:35;5.22;;;4.28;;
54853;SDS011;40747;49.480;8.658;2022-12-18T06:03:04;17.02;;;8.45;;
54853;SDS011;40747;49.480;8.658;2022-12-18T06:05:34;20.48;;;11.18;;
54853;SDS011;40747;49.480;8.658;2022-12-18T06:08:00;8.38;;;5.95;;
54853;SDS011;40747;49.480;8.658;2022-12-18T06:10:25;17.23;;;8.82;;
54853;SDS011;40747;49.480;8.658;2022-12-18T06:12:51;5.10;;;4.50;;
54853;SDS011;40747;49.480;8.658;2022-12-18T06:15:16;6.22;;;5.60;;
54853;SDS011;40747;49.480;8.658;2022-12-18T06:17:41;9.75;;;7.57;;
54853;SDS011;40747;49.480;8.658;2022-12-18T06:20:07;8.82;;;6.25;;
54853;SDS011;40747;49.480;8.658;2022-12-18T06:22:32;6.65;;;4.93;;
54853;SDS011;40747;49.480;8.658;2022-12-18T06:24:58;5.50;;;2.25;;
54853;SDS011;40747;49.480;8.658;2022-12-18T06:27:24;22.50;;;11.00;;
54853;SDS011;40747;49.480;8.658;2022-12-18T06:29:50;6.20;;;4.65;;
54853;SDS011;40747;49.480;8.658;2022-12-18T06:32:15;2.72;;;2.60;;
54853;SDS011;40747;49.480;8.658;2022-12-18T06:34:40;16.75;;;7.10;;
54853;SDS011;40747;49.480;8.658;2022-12-18T06:37:06;6.85;;;6.10;;
54853;SDS011;40747;49.480;8.658;2022-12-18T06:39:31;7.47;;;5.65;;
54853;SDS011;40747;49.480;8.658;2022-12-18T06:41:56;8.27;;;4.13;;
54853;SDS011;40747;49.480;8.658;2022-12-18T06:44:22;16.77;;;9.82;;
54853;SDS011;40747;49.480;8.658;2022-12-18T06:46:47;24.88;;;6.10;;
54853;SDS011;40747;49.480;8.658;2022-12-18T06:49:12;6.00;;;5.50;;
54853;SDS011;40747;49.480;8.658;2022-12-18T06:51:38;7.55;;;5.85;;
54853;SDS011;40747;49.480;8.658;2022-12-18T06:54:03;65.95;;;23.38;;
54853;SDS011;40747;49.480;8.658;2022-12-18T06:56:28;52.50;;;20.80;;
54853;SDS011;40747;49.480;8.658;2022-12-18T06:58:54;85.55;;;27.70;;
54853;SDS011;40747;49.480;8.658;2022-12-18T07:01:20;48.72;;;21.02;;
54853;SDS011;40747;49.480;8.658;2022-12-18T07:03:45;46.85;;;17.70;;
54853;SDS011;40747;49.480;8.658;2022-12-18T07:06:15;80.78;;;24.17;;
54853;SDS011;40747;49.480;8.658;2022-12-18T07:08:42;26.20;;;14.43;;
54853;SDS011;40747;49.480;8.658;2022-12-18T07:11:07;48.88;;;17.95;;
54853;SDS011;40747;49.480;8.658;2022-12-18T07:13:33;39.08;;;13.77;;
54853;SDS011;40747;49.480;8.658;2022-12-18T07:16:16;52.42;;;18.70;;
54853;SDS011;40747;49.480;8.658;2022-12-18T07:18:44;51.40;;;21.48;;
54853;SDS011;40747;49.480;8.658;2022-12-18T07:21:11;51.28;;;18.23;;
54853;SDS011;40747;49.480;8.658;2022-12-18T07:23:38;34.28;;;15.52;;
54853;SDS011;40747;49.480;8.658;2022-12-18T07:26:05;30.50;;;13.77;;
54853;SDS011;40747;49.480;8.658;2022-12-18T07:28:38;53.67;;;18.00;;
54853;SDS011;40747;49.480;8.658;2022-12-18T07:31:05;33.47;;;13.10;;
54853;SDS011;40747;49.480;8.658;2022-12-18T07:33:38;12.45;;;9.13;;
54853;SDS011;40747;49.480;8.658;2022-12-18T07:36:04;13.13;;;6.47;;
54853;SDS011;40747;49.480;8.658;2022-12-18T07:38:31;11.27;;;7.40;;
54853;SDS011;40747;49.480;8.658;2022-12-18T07:41:01;24.25;;;11.93;;
54853;SDS011;40747;49.480;8.658;2022-12-18T07:43:27;22.10;;;11.05;;
54853;SDS011;40747;49.480;8.658;2022-12-18T07:45:52;24.10;;;13.18;;
54853;SDS011;40747;49.480;8.658;2022-12-18T07:48:17;7.25;;;6.15;;
54853;SDS011;40747;49.480;8.658;2022-12-18T07:50:42;10.40;;;7.45;;
54853;SDS011;40747;49.480;8.658;2022-12-18T07:53:08;22.00;;;10.90;;
54853;SDS011;40747;49.480;8.658;2022-12-18T07:55:33;19.23;;;8.68;;
54853;SDS011;40747;49.480;8.658;2022-12-18T07:58:02;38.42;;;14.63;;
54853;SDS011;40747;49.480;8.658;2022-12-18T08:00:28;33.92;;;13.93;;
54853;SDS011;40747;49.480;8.658;2022-12-18T08:02:54;37.70;;;14.60;;
54853;SDS011;40747;49.480;8.658;2022-12-18T08:05:19;39.03;;;13.60;;
54853;SDS011;40747;49.480;8.658;2022-12-18T08:07:45;39.90;;;13.98;;
54853;SDS011;40747;49.480;8.658;2022-12-18T08:10:11;54.72;;;20.33;;
54853;SDS011;40747;49.480;8.658;2022-12-18T08:12:36;59.17;;;20.95;;
54853;SDS011;40747;49.480;8.658;2022-12-18T08:15:01;46.97;;;17.17;;
54853;SDS011;40747;49.480;8.658;2022-12-18T08:17:27;73.88;;;24.80;;
54853;SDS011;40747;49.480;8.658;2022-12-18T08:19:52;67.15;;;25.67;;
54853;SDS011;40747;49.480;8.658;2022-12-18T08:22:17;70.45;;;25.60;;
54853;SDS011;40747;49.480;8.658;2022-12-18T08:24:43;55.60;;;19.40;;
54853;SDS011;40747;49.480;8.658;2022-12-18T08:27:08;56.20;;;21.20;;
54853;SDS011;40747;49.480;8.658;2022-12-18T08:29:33;18.33;;;8.57;;
54853;SDS011;40747;49.480;8.658;2022-12-18T08:31:59;65.68;;;22.38;;
54853;SDS011;40747;49.480;8.658;2022-12-18T08:34:24;63.60;;;22.20;;
54853;SDS011;40747;49.480;8.658;2022-12-18T08:36:50;62.85;;;24.23;;
54853;SDS011;40747;49.480;8.658;2022-12-18T08:39:15;61.40;;;23.70;;
54853;SDS011;40747;49.480;8.658;2022-12-18T08:41:40;71.53;;;27.00;;
54853;SDS011;40747;49.480;8.658;2022-12-18T08:44:07;23.27;;;10.82;;
54853;SDS011;40747;49.480;8.658;2022-12-18T08:46:51;21.35;;;9.70;;
54853;SDS011;40747;49.480;8.658;2022-12-18T08:49:16;4.30;;;3.90;;
54853;SDS011;40747;49.480;8.658;2022-12-18T08:51:42;21.23;;;11.07;;
54853;SDS011;40747;49.480;8.658;2022-12-18T08:54:08;12.32;;;8.13;;
54853;SDS011;40747;49.480;8.658;2022-12-18T08:56:36;11.65;;;9.05;;
54853;SDS011;40747;49.480;8.658;2022-12-18T08:59:01;10.52;;;7.70;;
54853;SDS011;40747;49.480;8.658;2022-12-18T09:01:27;17.55;;;11.35;;
54853;SDS011;40747;49.480;8.658;2022-12-18T09:03:53;6.10;;;3.95;;
54853;SDS011;40747;49.480;8.658;2022-12-18T09:06:20;26.90;;;13.02;;
54853;SDS011;40747;49.480;8.658;2022-12-18T09:08:46;10.63;;;9.63;;
54853;SDS011;40747;49.480;8.658;2022-12-18T09:11:13;5.93;;;4.28;;
54853;SDS011;40747;49.480;8.658;2022-12-18T09:13:42;29.83;;;11.70;;
54853;SDS011;40747;49.480;8.658;2022-12-18T09:16:08;6.80;;;4.45;;
54853;SDS011;40747;49.480;8.658;2022-12-18T09:18:33;10.95;;;8.23;;
54853;SDS011;40747;49.480;8.658;2022-12-18T09:20:59;7.97;;;6.57;;
54853;SDS011;40747;49.480;8.658;2022-12-18T09:23:24;8.55;;;6.63;;
54853;SDS011;40747;49.480;8.658;2022-12-18T09:25:49;10.05;;;8.15;;
54853;SDS011;40747;49.480;8.658;2022-12-18T09:28:17;21.25;;;10.02;;
54853;SDS011;40747;49.480;8.658;2022-12-18T09:30:45;5.18;;;4.07;;
54853;SDS011;40747;49.480;8.658;2022-12-18T09:33:14;9.18;;;7.50;;
54853;SDS011;40747;49.480;8.658;2022-12-18T09:35:40;16.30;;;4.75;;
54853;SDS011;40747;49.480;8.658;2022-12-18T09:38:08;25.15;;;12.90;;
54853;SDS011;40747;49.480;8.658;2022-12-18T09:40:36;25.35;;;12.80;;
54853;SDS011;40747;49.480;8.658;2022-12-18T09:43:09;28.77;;;15.05;;
54853;SDS011;40747;49.480;8.658;2022-12-18T09:45:42;7.70;;;5.95;;
54853;SDS011;40747;49.480;8.658;2022-12-18T09:48:15;13.68;;;8.13;;
54853;SDS011;40747;49.480;8.658;2022-12-18T09:50:57;16.67;;;8.05;;
54853;SDS011;40747;49.480;8.658;2022-12-18T09:53:27;7.93;;;6.75;;
54853;SDS011;40747;49.480;8.658;2022-12-18T09:55:57;43.28;;;20.08;;
54853;SDS011;40747;49.480;8.658;2022-12-18T09:58:30;64.55;;;24.83;;
54853;SDS011;40747;49.480;8.658;2022-12-18T10:00:56;51.58;;;19.55;;
54853;SDS011;40747;49.480;8.658;2022-12-18T10:03:22;18.33;;;11.82;;
54853;SDS011;40747;49.480;8.658;2022-12-18T10:08:45;50.88;;;22.02;;
54853;SDS011;40747;49.480;8.658;2022-12-18T10:14:29;62.58;;;24.67;;
54853;SDS011;40747;49.480;8.658;2022-12-18T10:19:58;66.82;;;25.60;;
54853;SDS011;40747;49.480;8.658;2022-12-18T10:25:34;45.85;;;17.95;;
54853;SDS011;40747;49.480;8.658;2022-12-18T10:28:10;27.47;;;15.47;;
54853;SDS011;40747;49.480;8.658;2022-12-18T10:30:40;21.90;;;12.80;;
54853;SDS011;40747;49.480;8.658;2022-12-18T10:33:09;57.03;;;23.83;;
54853;SDS011;40747;49.480;8.658;2022-12-18T10:35:37;38.72;;;15.82;;
54853;SDS011;40747;49.480;8.658;2022-12-18T10:43:32;33.17;;;14.85;;
54853;SDS011;40747;49.480;8.658;2022-12-18T10:48:50;52.42;;;19.67;;
54853;SDS011;40747;49.480;8.658;2022-12-18T10:53:57;56.42;;;24.38;;
54853;SDS011;40747;49.480;8.658;2022-12-18T10:56:26;38.08;;;14.25;;
54853;SDS011;40747;49.480;8.658;2022-12-18T10:58:57;46.47;;;20.63;;
54853;SDS011;40747;49.480;8.658;2022-12-18T11:01:25;33.42;;;16.83;;
54853;SDS011;40747;49.480;8.658;2022-12-18T11:03:59;50.58;;;19.90;;
54853;SDS011;40747;49.480;8.658;2022-12-18T11:06:26;47.58;;;19.10;;
54853;SDS011;40747;49.480;8.658;2022-12-18T11:08:59;46.83;;;17.92;;
54853;SDS011;40747;49.480;8.658;2022-12-18T11:11:26;24.42;;;12.85;;
54853;SDS011;40747;49.480;8.658;2022-12-18T11:13:56;61.05;;;23.50;;
54853;SDS011;40747;49.480;8.658;2022-12-18T11:16:26;57.28;;;19.83;;
54853;SDS011;40747;49.480;8.658;2022-12-18T11:18:53;51.95;;;18.45;;
54853;SDS011;40747;49.480;8.658;2022-12-18T11:21:18;33.72;;;14.43;;
54853;SDS011;40747;49.480;8.658;2022-12-18T11:23:46;42.15;;;17.35;;
54853;SDS011;40747;49.480;8.658;2022-12-18T11:26:14;57.17;;;20.27;;
54853;SDS011;40747;49.480;8.658;2022-12-18T11:28:40;50.90;;;21.52;;
54853;SDS011;40747;49.480;8.658;2022-12-18T11:36:42;60.20;;;23.00;;
54853;SDS011;40747;49.480;8.658;2022-12-18T11:39:12;61.53;;;25.15;;
54853;SDS011;40747;49.480;8.658;2022-12-18T11:41:49;54.35;;;21.17;;
54853;SDS011;40747;49.480;8.658;2022-12-18T11:44:57;27.52;;;14.77;;
54853;SDS011;40747;49.480;8.658;2022-12-18T11:50:28;60.35;;;24.25;;
54853;SDS011;40747;49.480;8.658;2022-12-18T11:52:58;52.33;;;20.58;;
54853;SDS011;40747;49.480;8.658;2022-12-18T12:01:15;55.00;;;23.35;;
54853;SDS011;40747;49.480;8.658;2022-12-18T12:03:55;70.35;;;27.30;;
54853;SDS011;40747;49.480;8.658;2022-12-18T12:09:16;61.45;;;20.67;;
54853;SDS011;40747;49.480;8.658;2022-12-18T12:12:01;25.67;;;12.30;;
54853;SDS011;40747;49.480;8.658;2022-12-18T12:14:36;53.83;;;21.17;;
54853;SDS011;40747;49.480;8.658;2022-12-18T12:17:34;50.15;;;20.83;;
54853;SDS011;40747;49.480;8.658;2022-12-18T12:22:46;47.50;;;18.73;;
54853;SDS011;40747;49.480;8.658;2022-12-18T12:25:37;33.28;;;13.85;;
54853;SDS011;40747;49.480;8.658;2022-12-18T12:28:13;35.95;;;16.40;;
54853;SDS011;40747;49.480;8.658;2022-12-18T12:36:37;52.72;;;19.85;;
54853;SDS011;40747;49.480;8.658;2022-12-18T12:39:13;42.10;;;14.02;;
54853;SDS011;40747;49.480;8.658;2022-12-18T12:41:45;22.40;;;10.98;;
54853;SDS011;40747;49.480;8.658;2022-12-18T12:44:38;18.20;;;11.75;;
54853;SDS011;40747;49.480;8.658;2022-12-18T12:47:20;30.83;;;15.95;;
54853;SDS011;40747;49.480;8.658;2022-12-18T12:49:49;48.22;;;20.92;;
54853;SDS011;40747;49.480;8.658;2022-12-18T12:52:17;65.35;;;26.52;;
54853;SDS011;40747;49.480;8.658;2022-12-18T12:54:53;51.80;;;21.95;;
54853;SDS011;40747;49.480;8.658;2022-12-18T12:57:38;54.67;;;23.98;;
54853;SDS011;40747;49.480;8.658;2022-12-18T13:00:09;68.47;;;27.92;;
54853;SDS011;40747;49.480;8.658;2022-12-18T13:05:30;46.17;;;20.85;;
54853;SDS011;40747;49.480;8.658;2022-12-18T13:08:04;44.90;;;19.40;;
54853;SDS011;40747;49.480;8.658;2022-12-18T13:10:33;64.97;;;25.13;;
54853;SDS011;40747;49.480;8.658;2022-12-18T13:13:03;72.75;;;25.13;;
54853;SDS011;40747;49.480;8.658;2022-12-18T13:15:36;57.78;;;22.73;;
54853;SDS011;40747;49.480;8.658;2022-12-18T13:18:18;55.38;;;22.05;;
54853;SDS011;40747;49.480;8.658;2022-12-18T13:23:31;58.97;;;22.05;;
54853;SDS011;40747;49.480;8.658;2022-12-18T13:36:41;26.83;;;14.20;;
54853;SDS011;40747;49.480;8.658;2022-12-18T13:41:41;35.45;;;15.60;;
54853;SDS011;40747;49.480;8.658;2022-12-18T13:44:11;35.38;;;17.60;;
54853;SDS011;40747;49.480;8.658;2022-12-18T13:46:58;51.78;;;22.88;;
54853;SDS011;40747;49.480;8.658;2022-12-18T13:49:26;58.63;;;23.20;;
54853;SDS011;40747;49.480;8.658;2022-12-18T13:52:00;52.45;;;23.50;;
54853;SDS011;40747;49.480;8.658;2022-12-18T13:54:35;24.92;;;11.55;;
54853;SDS011;40747;49.480;8.658;2022-12-18T13:57:04;43.50;;;18.73;;
54853;SDS011;40747;49.480;8.658;2022-12-18T13:59:37;43.70;;;20.63;;
54853;SDS011;40747;49.480;8.658;2022-12-18T14:02:13;42.38;;;19.35;;
54853;SDS011;40747;49.480;8.658;2022-12-18T14:04:46;63.60;;;23.15;;
54853;SDS011;40747;49.480;8.658;2022-12-18T14:07:23;28.73;;;14.73;;
54853;SDS011;40747;49.480;8.658;2022-12-18T14:09:59;46.08;;;18.10;;
54853;SDS011;40747;49.480;8.658;2022-12-18T14:12:32;41.92;;;19.10;;
54853;SDS011;40747;49.480;8.658;2022-12-18T14:20:52;60.28;;;26.83;;
54853;SDS011;40747;49.480;8.658;2022-12-18T14:23:27;45.72;;;18.77;;
54853;SDS011;40747;49.480;8.658;2022-12-18T14:28:48;40.55;;;18.55;;
54853;SDS011;40747;49.480;8.658;2022-12-18T14:31:23;54.42;;;25.52;;
54853;SDS011;40747;49.480;8.658;2022-12-18T14:33:50;56.33;;;22.23;;
54853;SDS011;40747;49.480;8.658;2022-12-18T14:36:24;39.08;;;18.75;;
54853;SDS011;40747;49.480;8.658;2022-12-18T14:38:51;64.15;;;25.60;;
54853;SDS011;40747;49.480;8.658;2022-12-18T14:41:19;52.67;;;21.10;;
54853;SDS011;40747;49.480;8.658;2022-12-18T14:43:46;47.63;;;20.75;;
54853;SDS011;40747;49.480;8.658;2022-12-18T14:48:57;64.07;;;25.20;;
54853;SDS011;40747;49.480;8.658;2022-12-18T14:51:27;48.58;;;21.88;;
54853;SDS011;40747;49.480;8.658;2022-12-18T14:54:04;50.85;;;21.20;;
54853;SDS011;40747;49.480;8.658;2022-12-18T14:56:42;18.38;;;9.63;;
54853;SDS011;40747;49.480;8.658;2022-12-18T14:59:14;9.90;;;8.07;;
54853;SDS011;40747;49.480;8.658;2022-12-18T15:04:27;25.63;;;14.68;;
54853;SDS011;40747;49.480;8.658;2022-12-18T15:09:35;20.13;;;11.57;;
54853;SDS011;40747;49.480;8.658;2022-12-18T15:12:02;12.48;;;8.85;;
54853;SDS011;40747;49.480;8.658;2022-12-18T15:14:35;21.70;;;11.65;;
54853;SDS011;40747;49.480;8.658;2022-12-18T15:17:06;40.08;;;19.77;;
54853;SDS011;40747;49.480;8.658;2022-12-18T15:19:42;28.60;;;16.45;;
54853;SDS011;40747;49.480;8.658;2022-12-18T15:22:16;7.32;;;6.47;;
54853;SDS011;40747;49.480;8.658;2022-12-18T15:24:42;34.80;;;12.88;;
54853;SDS011;40747;49.480;8.658;2022-12-18T15:27:19;19.77;;;12.68;;
54853;SDS011;40747;49.480;8.658;2022-12-18T15:29:59;71.30;;;29.52;;
54853;SDS011;40747;49.480;8.658;2022-12-18T15:32:25;75.50;;;30.73;;
54853;SDS011;40747;49.480;8.658;2022-12-18T15:34:50;62.50;;;24.23;;
54853;SDS011;40747;49.480;8.658;2022-12-18T15:37:26;70.55;;;30.90;;
54853;SDS011;40747;49.480;8.658;2022-12-18T15:39:51;69.30;;;29.52;;
54853;SDS011;40747;49.480;8.658;2022-12-18T15:42:16;89.03;;;34.63;;
54853;SDS011;40747;49.480;8.658;2022-12-18T15:45:00;80.90;;;29.15;;
54853;SDS011;40747;49.480;8.658;2022-12-18T15:47:26;76.60;;;31.00;;
54853;SDS011;40747;49.480;8.658;2022-12-18T15:49:51;72.97;;;29.27;;
54853;SDS011;40747;49.480;8.658;2022-12-18T15:52:16;65.05;;;27.13;;
54853;SDS011;40747;49.480;8.658;2022-12-18T15:54:50;79.38;;;29.45;;
54853;SDS011;40747;49.480;8.658;2022-12-18T15:57:35;79.32;;;31.52;;
54853;SDS011;40747;49.480;8.658;2022-12-18T16:00:00;81.40;;;32.60;;
54853;SDS011;40747;49.480;8.658;2022-12-18T16:02:25;87.00;;;35.90;;
54853;SDS011;40747;49.480;8.658;2022-12-18T16:04:52;71.35;;;31.35;;
54853;SDS011;40747;49.480;8.658;2022-12-18T16:07:19;77.78;;;31.92;;
54853;SDS011;40747;49.480;8.658;2022-12-18T16:09:47;82.55;;;33.33;;
54853;SDS011;40747;49.480;8.658;2022-12-18T16:12:16;82.60;;;33.83;;
54853;SDS011;40747;49.480;8.658;2022-12-18T16:14:47;74.20;;;31.17;;
54853;SDS011;40747;49.480;8.658;2022-12-18T16:17:13;85.03;;;37.10;;
54853;SDS011;40747;49.480;8.658;2022-12-18T16:19:39;77.28;;;33.63;;
54853;SDS011;40747;49.480;8.658;2022-12-18T16:22:14;85.43;;;34.60;;
54853;SDS011;40747;49.480;8.658;2022-12-18T16:24:43;76.00;;;32.45;;
54853;SDS011;40747;49.480;8.658;2022-12-18T16:27:08;80.32;;;35.05;;